sensor_id;sensor_type;location;lat;lon;timestamp;temperature;humidity
6690;DHT22;3382;51.576;8.076;2022-12-07T00:03:45;19.40;99.90
6690;DHT22;3382;51.576;8.076;2022-12-07T00:06:13;19.50;99.90
6690;DHT22;3382;51.576;8.076;2022-12-07T00:08:39;19.60;99.90
6690;DHT22;3382;51.576;8.076;2022-12-07T00:11:17;19.60;99.90
6690;DHT22;3382;51.576;8.076;2022-12-07T00:13:43;19.60;99.90
6690;DHT22;3382;51.576;8.076;2022-12-07T00:16:14;19.80;99.90
6690;DHT22;3382;51.576;8.076;2022-12-07T00:18:41;20.00;99.90
6690;DHT22;3382;51.576;8.076;2022-12-07T00:21:11;20.10;99.90
6690;DHT22;3382;51.576;8.076;2022-12-07T00:23:37;20.10;99.90
6690;DHT22;3382;51.576;8.076;2022-12-07T00:26:08;20.10;99.90
6690;DHT22;3382;51.576;8.076;2022-12-07T00:28:34;20.20;99.90
6690;DHT22;3382;51.576;8.076;2022-12-07T00:31:11;20.20;99.90
6690;DHT22;3382;51.576;8.076;2022-12-07T00:33:37;20.30;99.90
6690;DHT22;3382;51.576;8.076;2022-12-07T00:36:12;20.20;99.90
6690;DHT22;3382;51.576;8.076;2022-12-07T00:38:39;20.20;99.90
6690;DHT22;3382;51.576;8.076;2022-12-07T00:41:13;20.30;99.90
6690;DHT22;3382;51.576;8.076;2022-12-07T00:43:40;20.40;99.90
6690;DHT22;3382;51.576;8.076;2022-12-07T00:46:06;20.40;99.90
6690;DHT22;3382;51.576;8.076;2022-12-07T00:48:32;20.40;99.90
6690;DHT22;3382;51.576;8.076;2022-12-07T00:50:58;20.40;99.90
6690;DHT22;3382;51.576;8.076;2022-12-07T00:53:24;20.50;99.90
6690;DHT22;3382;51.576;8.076;2022-12-07T00:55:49;20.60;99.90
6690;DHT22;3382;51.576;8.076;2022-12-07T00:58:15;20.60;99.90
6690;DHT22;3382;51.576;8.076;2022-12-07T01:00:42;20.40;99.90
6690;DHT22;3382;51.576;8.076;2022-12-07T01:03:11;20.30;99.90
6690;DHT22;3382;51.576;8.076;2022-12-07T01:05:37;20.00;99.90
6690;DHT22;3382;51.576;8.076;2022-12-07T01:08:03;19.70;99.90
6690;DHT22;3382;51.576;8.076;2022-12-07T01:10:28;19.60;99.90
6690;DHT22;3382;51.576;8.076;2022-12-07T01:12:56;19.90;99.90
6690;DHT22;3382;51.576;8.076;2022-12-07T01:15:21;19.90;99.90
6690;DHT22;3382;51.576;8.076;2022-12-07T01:17:47;20.00;99.90
6690;DHT22;3382;51.576;8.076;2022-12-07T01:20:13;20.20;99.90
6690;DHT22;3382;51.576;8.076;2022-12-07T01:22:39;20.10;99.90
6690;DHT22;3382;51.576;8.076;2022-12-07T01:25:07;20.20;99.90
6690;DHT22;3382;51.576;8.076;2022-12-07T01:27:33;20.30;99.90
6690;DHT22;3382;51.576;8.076;2022-12-07T01:30:00;20.40;99.90
6690;DHT22;3382;51.576;8.076;2022-12-07T01:32:26;20.60;99.90
6690;DHT22;3382;51.576;8.076;2022-12-07T01:34:51;20.60;99.90
6690;DHT22;3382;51.576;8.076;2022-12-07T01:37:17;20.70;99.90
6690;DHT22;3382;51.576;8.076;2022-12-07T01:39:43;20.50;99.90
6690;DHT22;3382;51.576;8.076;2022-12-07T01:42:12;20.50;99.90
6690;DHT22;3382;51.576;8.076;2022-12-07T01:47:42;20.40;99.90
6690;DHT22;3382;51.576;8.076;2022-12-07T01:50:09;20.60;99.90
6690;DHT22;3382;51.576;8.076;2022-12-07T01:52:36;20.40;99.90
6690;DHT22;3382;51.576;8.076;2022-12-07T01:55:11;20.50;99.90
6690;DHT22;3382;51.576;8.076;2022-12-07T01:57:40;20.40;99.90
6690;DHT22;3382;51.576;8.076;2022-12-07T02:00:07;20.50;99.90
6690;DHT22;3382;51.576;8.076;2022-12-07T02:02:37;20.60;99.90
6690;DHT22;3382;51.576;8.076;2022-12-07T02:05:05;20.60;99.90
6690;DHT22;3382;51.576;8.076;2022-12-07T02:07:32;20.70;99.90
6690;DHT22;3382;51.576;8.076;2022-12-07T02:10:31;20.60;99.90
6690;DHT22;3382;51.576;8.076;2022-12-07T02:13:13;20.60;99.90
6690;DHT22;3382;51.576;8.076;2022-12-07T02:21:53;20.50;99.90
6690;DHT22;3382;51.576;8.076;2022-12-07T02:27:19;20.70;99.90
6690;DHT22;3382;51.576;8.076;2022-12-07T02:30:07;20.70;99.90
6690;DHT22;3382;51.576;8.076;2022-12-07T02:32:40;20.80;99.90
6690;DHT22;3382;51.576;8.076;2022-12-07T02:35:20;20.70;99.90
6690;DHT22;3382;51.576;8.076;2022-12-07T02:40:25;20.60;99.90
6690;DHT22;3382;51.576;8.076;2022-12-07T02:43:12;20.70;99.90
6690;DHT22;3382;51.576;8.076;2022-12-07T02:45:41;20.80;99.90
6690;DHT22;3382;51.576;8.076;2022-12-07T02:48:10;20.50;99.90
6690;DHT22;3382;51.576;8.076;2022-12-07T02:50:37;20.00;99.90
6690;DHT22;3382;51.576;8.076;2022-12-07T02:53:02;19.70;99.90
6690;DHT22;3382;51.576;8.076;2022-12-07T02:55:34;19.90;99.90
6690;DHT22;3382;51.576;8.076;2022-12-07T03:00:52;20.20;99.90
6690;DHT22;3382;51.576;8.076;2022-12-07T03:03:17;20.30;99.90
6690;DHT22;3382;51.576;8.076;2022-12-07T03:06:02;20.30;99.90
6690;DHT22;3382;51.576;8.076;2022-12-07T03:11:29;20.60;99.90
6690;DHT22;3382;51.576;8.076;2022-12-07T03:14:18;20.80;99.90
6690;DHT22;3382;51.576;8.076;2022-12-07T03:16:57;20.90;99.90
6690;DHT22;3382;51.576;8.076;2022-12-07T03:19:27;20.80;99.90
6690;DHT22;3382;51.576;8.076;2022-12-07T03:22:10;20.80;99.90
6690;DHT22;3382;51.576;8.076;2022-12-07T03:25:00;20.80;99.90
6690;DHT22;3382;51.576;8.076;2022-12-07T03:27:31;20.90;99.90
6690;DHT22;3382;51.576;8.076;2022-12-07T03:32:45;20.90;99.90
6690;DHT22;3382;51.576;8.076;2022-12-07T03:35:14;20.90;99.90
6690;DHT22;3382;51.576;8.076;2022-12-07T03:37:50;21.00;99.90
6690;DHT22;3382;51.576;8.076;2022-12-07T03:40:40;20.90;99.90
6690;DHT22;3382;51.576;8.076;2022-12-07T03:43:08;20.90;99.90
6690;DHT22;3382;51.576;8.076;2022-12-07T03:45:40;20.70;99.90
6690;DHT22;3382;51.576;8.076;2022-12-07T03:48:14;20.60;99.90
6690;DHT22;3382;51.576;8.076;2022-12-07T03:50:54;20.60;99.90
6690;DHT22;3382;51.576;8.076;2022-12-07T03:53:36;20.60;99.90
6690;DHT22;3382;51.576;8.076;2022-12-07T03:56:06;20.50;99.90
6690;DHT22;3382;51.576;8.076;2022-12-07T03:58:34;20.30;99.90
6690;DHT22;3382;51.576;8.076;2022-12-07T04:01:00;20.30;99.90
6690;DHT22;3382;51.576;8.076;2022-12-07T04:03:26;20.50;99.90
6690;DHT22;3382;51.576;8.076;2022-12-07T04:05:52;20.70;99.90
6690;DHT22;3382;51.576;8.076;2022-12-07T04:08:17;20.70;99.90
6690;DHT22;3382;51.576;8.076;2022-12-07T04:10:43;20.80;99.90
6690;DHT22;3382;51.576;8.076;2022-12-07T04:13:08;20.90;99.90
6690;DHT22;3382;51.576;8.076;2022-12-07T04:15:34;20.80;99.90
6690;DHT22;3382;51.576;8.076;2022-12-07T04:18:00;20.90;99.90
6690;DHT22;3382;51.576;8.076;2022-12-07T04:20:25;20.90;99.90
6690;DHT22;3382;51.576;8.076;2022-12-07T04:22:51;20.80;99.90
6690;DHT22;3382;51.576;8.076;2022-12-07T04:25:16;20.80;99.90
6690;DHT22;3382;51.576;8.076;2022-12-07T04:27:42;20.70;99.90
6690;DHT22;3382;51.576;8.076;2022-12-07T04:30:08;20.60;99.90
6690;DHT22;3382;51.576;8.076;2022-12-07T04:32:34;20.60;99.90
6690;DHT22;3382;51.576;8.076;2022-12-07T04:34:59;20.60;99.90
6690;DHT22;3382;51.576;8.076;2022-12-07T04:37:25;20.50;99.90
6690;DHT22;3382;51.576;8.076;2022-12-07T04:39:51;20.50;99.90
6690;DHT22;3382;51.576;8.076;2022-12-07T04:42:16;20.00;99.90
6690;DHT22;3382;51.576;8.076;2022-12-07T04:44:42;20.30;99.90
6690;DHT22;3382;51.576;8.076;2022-12-07T04:47:07;20.50;99.90
6690;DHT22;3382;51.576;8.076;2022-12-07T04:49:33;20.70;99.90
6690;DHT22;3382;51.576;8.076;2022-12-07T04:51:59;20.70;99.90
6690;DHT22;3382;51.576;8.076;2022-12-07T04:54:24;20.80;99.90
6690;DHT22;3382;51.576;8.076;2022-12-07T04:56:50;20.80;99.90
6690;DHT22;3382;51.576;8.076;2022-12-07T04:59:16;20.80;99.90
6690;DHT22;3382;51.576;8.076;2022-12-07T05:01:42;20.80;99.90
6690;DHT22;3382;51.576;8.076;2022-12-07T05:04:08;20.80;99.90
6690;DHT22;3382;51.576;8.076;2022-12-07T05:06:35;20.90;99.90
6690;DHT22;3382;51.576;8.076;2022-12-07T05:09:01;20.90;99.90
6690;DHT22;3382;51.576;8.076;2022-12-07T05:11:26;20.70;99.90
6690;DHT22;3382;51.576;8.076;2022-12-07T05:14:24;20.70;99.90
6690;DHT22;3382;51.576;8.076;2022-12-07T05:16:50;20.70;99.90
6690;DHT22;3382;51.576;8.076;2022-12-07T05:19:17;20.70;99.90
6690;DHT22;3382;51.576;8.076;2022-12-07T05:21:44;20.80;99.90
6690;DHT22;3382;51.576;8.076;2022-12-07T05:24:11;20.70;99.90
6690;DHT22;3382;51.576;8.076;2022-12-07T05:26:37;20.50;99.90
6690;DHT22;3382;51.576;8.076;2022-12-07T05:29:03;20.40;99.90
6690;DHT22;3382;51.576;8.076;2022-12-07T05:31:29;20.10;99.90
6690;DHT22;3382;51.576;8.076;2022-12-07T05:33:55;20.10;99.90
6690;DHT22;3382;51.576;8.076;2022-12-07T05:36:20;20.30;99.90
6690;DHT22;3382;51.576;8.076;2022-12-07T05:38:46;20.50;99.90
6690;DHT22;3382;51.576;8.076;2022-12-07T05:41:16;20.60;99.90
6690;DHT22;3382;51.576;8.076;2022-12-07T05:44:01;20.60;99.90
6690;DHT22;3382;51.576;8.076;2022-12-07T05:46:27;20.20;99.90
6690;DHT22;3382;51.576;8.076;2022-12-07T05:48:53;19.90;99.90
6690;DHT22;3382;51.576;8.076;2022-12-07T05:51:18;20.20;99.90
6690;DHT22;3382;51.576;8.076;2022-12-07T05:53:45;20.50;99.90
6690;DHT22;3382;51.576;8.076;2022-12-07T05:56:10;20.80;99.90
6690;DHT22;3382;51.576;8.076;2022-12-07T05:58:36;21.00;99.90
6690;DHT22;3382;51.576;8.076;2022-12-07T06:01:20;21.10;99.90
6690;DHT22;3382;51.576;8.076;2022-12-07T06:03:46;21.10;99.90
6690;DHT22;3382;51.576;8.076;2022-12-07T06:06:11;21.10;99.90
6690;DHT22;3382;51.576;8.076;2022-12-07T06:08:37;20.90;99.90
6690;DHT22;3382;51.576;8.076;2022-12-07T06:11:03;19.40;99.90
6690;DHT22;3382;51.576;8.076;2022-12-07T06:13:47;18.50;99.90
6690;DHT22;3382;51.576;8.076;2022-12-07T06:16:12;17.60;99.90
6690;DHT22;3382;51.576;8.076;2022-12-07T06:18:38;17.80;99.90
6690;DHT22;3382;51.576;8.076;2022-12-07T06:21:03;18.00;99.90
6690;DHT22;3382;51.576;8.076;2022-12-07T06:23:29;18.40;99.90
6690;DHT22;3382;51.576;8.076;2022-12-07T06:25:55;19.00;99.90
6690;DHT22;3382;51.576;8.076;2022-12-07T06:28:20;19.40;99.90
6690;DHT22;3382;51.576;8.076;2022-12-07T06:30:46;19.70;99.90
6690;DHT22;3382;51.576;8.076;2022-12-07T06:33:11;19.90;99.90
6690;DHT22;3382;51.576;8.076;2022-12-07T06:35:37;20.00;99.90
6690;DHT22;3382;51.576;8.076;2022-12-07T06:38:02;20.00;99.90
6690;DHT22;3382;51.576;8.076;2022-12-07T06:40:28;19.90;99.90
6690;DHT22;3382;51.576;8.076;2022-12-07T06:42:53;20.10;99.90
6690;DHT22;3382;51.576;8.076;2022-12-07T06:45:19;20.20;99.90
6690;DHT22;3382;51.576;8.076;2022-12-07T06:47:45;20.40;99.90
6690;DHT22;3382;51.576;8.076;2022-12-07T06:50:10;20.60;99.90
6690;DHT22;3382;51.576;8.076;2022-12-07T06:52:36;20.50;99.90
6690;DHT22;3382;51.576;8.076;2022-12-07T06:55:01;20.50;99.90
6690;DHT22;3382;51.576;8.076;2022-12-07T06:57:27;20.70;99.90
6690;DHT22;3382;51.576;8.076;2022-12-07T06:59:52;20.70;99.90
6690;DHT22;3382;51.576;8.076;2022-12-07T07:02:18;20.80;99.90
6690;DHT22;3382;51.576;8.076;2022-12-07T07:04:44;20.20;99.90
6690;DHT22;3382;51.576;8.076;2022-12-07T07:07:09;19.50;99.90
6690;DHT22;3382;51.576;8.076;2022-12-07T07:09:35;19.20;99.90
6690;DHT22;3382;51.576;8.076;2022-12-07T07:12:01;19.00;99.90
6690;DHT22;3382;51.576;8.076;2022-12-07T07:14:26;19.00;99.90
6690;DHT22;3382;51.576;8.076;2022-12-07T07:16:52;19.20;99.90
6690;DHT22;3382;51.576;8.076;2022-12-07T07:19:18;19.50;99.90
6690;DHT22;3382;51.576;8.076;2022-12-07T07:21:43;19.60;99.90
6690;DHT22;3382;51.576;8.076;2022-12-07T07:24:09;19.90;99.90
6690;DHT22;3382;51.576;8.076;2022-12-07T07:26:34;19.90;99.90
6690;DHT22;3382;51.576;8.076;2022-12-07T07:29:00;19.90;99.90
6690;DHT22;3382;51.576;8.076;2022-12-07T07:31:25;20.00;99.90
6690;DHT22;3382;51.576;8.076;2022-12-07T07:33:51;20.20;99.90
6690;DHT22;3382;51.576;8.076;2022-12-07T07:36:17;20.20;99.90
6690;DHT22;3382;51.576;8.076;2022-12-07T07:38:42;20.20;99.90
6690;DHT22;3382;51.576;8.076;2022-12-07T07:41:08;20.30;99.90
6690;DHT22;3382;51.576;8.076;2022-12-07T07:43:33;20.40;99.90
6690;DHT22;3382;51.576;8.076;2022-12-07T07:45:59;20.40;99.90
6690;DHT22;3382;51.576;8.076;2022-12-07T07:48:25;20.60;99.90
6690;DHT22;3382;51.576;8.076;2022-12-07T07:50:51;20.30;99.90
6690;DHT22;3382;51.576;8.076;2022-12-07T07:53:16;20.30;99.90
6690;DHT22;3382;51.576;8.076;2022-12-07T07:55:53;20.30;99.90
6690;DHT22;3382;51.576;8.076;2022-12-07T07:58:19;19.90;99.90
6690;DHT22;3382;51.576;8.076;2022-12-07T08:00:44;19.30;99.90
6690;DHT22;3382;51.576;8.076;2022-12-07T08:03:10;19.40;99.90
6690;DHT22;3382;51.576;8.076;2022-12-07T08:05:37;19.30;99.90
6690;DHT22;3382;51.576;8.076;2022-12-07T08:08:02;19.70;99.90
6690;DHT22;3382;51.576;8.076;2022-12-07T08:10:28;19.90;99.90
6690;DHT22;3382;51.576;8.076;2022-12-07T08:12:54;19.60;99.90
6690;DHT22;3382;51.576;8.076;2022-12-07T08:15:41;19.70;99.90
6690;DHT22;3382;51.576;8.076;2022-12-07T08:18:07;19.90;99.90
6690;DHT22;3382;51.576;8.076;2022-12-07T08:20:34;20.20;99.90
6690;DHT22;3382;51.576;8.076;2022-12-07T08:23:00;20.40;99.90
6690;DHT22;3382;51.576;8.076;2022-12-07T08:25:26;20.40;99.90
6690;DHT22;3382;51.576;8.076;2022-12-07T08:27:52;20.30;99.90
6690;DHT22;3382;51.576;8.076;2022-12-07T08:30:19;20.40;99.90
6690;DHT22;3382;51.576;8.076;2022-12-07T08:32:45;20.40;99.90
6690;DHT22;3382;51.576;8.076;2022-12-07T08:35:11;20.40;99.90
6690;DHT22;3382;51.576;8.076;2022-12-07T08:37:36;20.60;99.90
6690;DHT22;3382;51.576;8.076;2022-12-07T08:40:04;20.50;99.90
6690;DHT22;3382;51.576;8.076;2022-12-07T08:42:30;20.60;99.90
6690;DHT22;3382;51.576;8.076;2022-12-07T08:45:06;20.50;99.90
6690;DHT22;3382;51.576;8.076;2022-12-07T08:47:34;20.60;99.90
6690;DHT22;3382;51.576;8.076;2022-12-07T08:50:01;20.60;99.90
6690;DHT22;3382;51.576;8.076;2022-12-07T08:52:32;20.70;99.90
6690;DHT22;3382;51.576;8.076;2022-12-07T08:55:00;20.70;99.90
6690;DHT22;3382;51.576;8.076;2022-12-07T08:57:27;20.90;99.90
6690;DHT22;3382;51.576;8.076;2022-12-07T08:59:53;21.00;99.90
6690;DHT22;3382;51.576;8.076;2022-12-07T09:02:19;21.00;99.90
6690;DHT22;3382;51.576;8.076;2022-12-07T09:04:45;21.00;99.90
6690;DHT22;3382;51.576;8.076;2022-12-07T09:07:11;20.80;99.90
6690;DHT22;3382;51.576;8.076;2022-12-07T09:09:36;20.70;99.90
6690;DHT22;3382;51.576;8.076;2022-12-07T09:12:02;20.60;99.90
6690;DHT22;3382;51.576;8.076;2022-12-07T09:14:28;20.70;99.90
6690;DHT22;3382;51.576;8.076;2022-12-07T09:16:53;20.90;99.90
6690;DHT22;3382;51.576;8.076;2022-12-07T09:19:19;21.00;99.90
6690;DHT22;3382;51.576;8.076;2022-12-07T09:21:45;21.10;99.90
6690;DHT22;3382;51.576;8.076;2022-12-07T09:24:12;21.20;99.90
6690;DHT22;3382;51.576;8.076;2022-12-07T09:26:37;21.20;99.90
6690;DHT22;3382;51.576;8.076;2022-12-07T09:29:04;21.10;99.90
6690;DHT22;3382;51.576;8.076;2022-12-07T09:31:30;21.20;99.90
6690;DHT22;3382;51.576;8.076;2022-12-07T09:34:00;21.30;99.90
6690;DHT22;3382;51.576;8.076;2022-12-07T09:36:29;21.30;99.90
6690;DHT22;3382;51.576;8.076;2022-12-07T09:38:55;21.30;99.90
6690;DHT22;3382;51.576;8.076;2022-12-07T09:41:21;21.30;99.90
6690;DHT22;3382;51.576;8.076;2022-12-07T09:43:48;21.10;99.90
6690;DHT22;3382;51.576;8.076;2022-12-07T09:46:16;21.10;99.90
6690;DHT22;3382;51.576;8.076;2022-12-07T09:48:45;21.00;99.90
6690;DHT22;3382;51.576;8.076;2022-12-07T09:51:17;20.90;99.90
6690;DHT22;3382;51.576;8.076;2022-12-07T09:53:43;21.00;99.90
6690;DHT22;3382;51.576;8.076;2022-12-07T09:56:17;21.10;99.90
6690;DHT22;3382;51.576;8.076;2022-12-07T09:58:44;21.20;99.90
6690;DHT22;3382;51.576;8.076;2022-12-07T10:01:19;21.30;99.90
6690;DHT22;3382;51.576;8.076;2022-12-07T10:03:59;21.30;99.90
6690;DHT22;3382;51.576;8.076;2022-12-07T10:06:26;21.40;99.90
6690;DHT22;3382;51.576;8.076;2022-12-07T10:08:51;21.40;99.90
6690;DHT22;3382;51.576;8.076;2022-12-07T10:11:17;21.40;99.90
6690;DHT22;3382;51.576;8.076;2022-12-07T10:13:46;21.40;99.90
6690;DHT22;3382;51.576;8.076;2022-12-07T10:16:39;21.30;99.90
6690;DHT22;3382;51.576;8.076;2022-12-07T10:19:32;21.30;99.90
6690;DHT22;3382;51.576;8.076;2022-12-07T10:22:11;21.40;99.90
6690;DHT22;3382;51.576;8.076;2022-12-07T10:24:39;21.40;99.90
6690;DHT22;3382;51.576;8.076;2022-12-07T10:27:21;21.40;99.90
6690;DHT22;3382;51.576;8.076;2022-12-07T10:29:51;21.40;99.90
6690;DHT22;3382;51.576;8.076;2022-12-07T10:34:43;21.20;99.90
6690;DHT22;3382;51.576;8.076;2022-12-07T10:39:52;21.40;99.90
6690;DHT22;3382;51.576;8.076;2022-12-07T10:47:56;20.60;99.90
6690;DHT22;3382;51.576;8.076;2022-12-07T10:53:40;21.00;99.90
6690;DHT22;3382;51.576;8.076;2022-12-07T10:58:57;21.10;99.90
6690;DHT22;3382;51.576;8.076;2022-12-07T11:01:53;21.20;99.90
6690;DHT22;3382;51.576;8.076;2022-12-07T11:07:11;21.20;99.90
6690;DHT22;3382;51.576;8.076;2022-12-07T11:26:26;20.80;99.90
6690;DHT22;3382;51.576;8.076;2022-12-07T11:37:31;21.10;99.90
6690;DHT22;3382;51.576;8.076;2022-12-07T11:42:42;21.20;99.90
6690;DHT22;3382;51.576;8.076;2022-12-07T11:45:16;21.20;99.90
6690;DHT22;3382;51.576;8.076;2022-12-07T11:47:47;21.20;99.90
6690;DHT22;3382;51.576;8.076;2022-12-07T11:53:20;21.30;99.90
6690;DHT22;3382;51.576;8.076;2022-12-07T11:55:56;21.30;99.90
6690;DHT22;3382;51.576;8.076;2022-12-07T12:06:22;21.40;99.90
6690;DHT22;3382;51.576;8.076;2022-12-07T12:09:04;21.40;99.90
6690;DHT22;3382;51.576;8.076;2022-12-07T12:22:50;21.30;99.90
6690;DHT22;3382;51.576;8.076;2022-12-07T12:25:24;21.40;99.90
6690;DHT22;3382;51.576;8.076;2022-12-07T12:27:52;21.50;99.90
6690;DHT22;3382;51.576;8.076;2022-12-07T12:30:36;21.50;99.90
6690;DHT22;3382;51.576;8.076;2022-12-07T12:35:36;21.50;99.90
6690;DHT22;3382;51.576;8.076;2022-12-07T12:40:54;21.50;99.90
6690;DHT22;3382;51.576;8.076;2022-12-07T12:51:43;21.60;99.90
6690;DHT22;3382;51.576;8.076;2022-12-07T12:54:14;21.60;99.90
6690;DHT22;3382;51.576;8.076;2022-12-07T12:59:42;21.60;99.90
6690;DHT22;3382;51.576;8.076;2022-12-07T13:02:36;21.60;99.90
6690;DHT22;3382;51.576;8.076;2022-12-07T13:23:38;21.60;99.90
6690;DHT22;3382;51.576;8.076;2022-12-07T13:31:34;21.70;99.90
6690;DHT22;3382;51.576;8.076;2022-12-07T13:34:01;21.70;99.90
6690;DHT22;3382;51.576;8.076;2022-12-07T13:36:31;21.70;99.90
6690;DHT22;3382;51.576;8.076;2022-12-07T13:41:41;21.70;99.90
6690;DHT22;3382;51.576;8.076;2022-12-07T13:44:17;21.70;99.90
6690;DHT22;3382;51.576;8.076;2022-12-07T13:49:50;21.80;99.90
6690;DHT22;3382;51.576;8.076;2022-12-07T13:57:22;21.80;99.90
6690;DHT22;3382;51.576;8.076;2022-12-07T13:59:50;21.80;99.90
6690;DHT22;3382;51.576;8.076;2022-12-07T14:02:29;21.80;99.90
6690;DHT22;3382;51.576;8.076;2022-12-07T14:07:35;21.80;99.90
6690;DHT22;3382;51.576;8.076;2022-12-07T14:10:04;21.80;99.90
6690;DHT22;3382;51.576;8.076;2022-12-07T14:12:31;21.70;99.90
6690;DHT22;3382;51.576;8.076;2022-12-07T14:14:59;21.60;99.90
6690;DHT22;3382;51.576;8.076;2022-12-07T14:17:27;21.40;99.90
6690;DHT22;3382;51.576;8.076;2022-12-07T14:20:00;21.50;99.90
6690;DHT22;3382;51.576;8.076;2022-12-07T14:22:37;21.50;99.90
6690;DHT22;3382;51.576;8.076;2022-12-07T14:27:39;21.70;99.90
6690;DHT22;3382;51.576;8.076;2022-12-07T14:30:06;21.70;99.90
6690;DHT22;3382;51.576;8.076;2022-12-07T14:32:32;21.80;99.90
6690;DHT22;3382;51.576;8.076;2022-12-07T14:35:07;21.80;99.90
6690;DHT22;3382;51.576;8.076;2022-12-07T14:37:33;21.80;99.90
6690;DHT22;3382;51.576;8.076;2022-12-07T14:39:59;21.90;99.90
6690;DHT22;3382;51.576;8.076;2022-12-07T14:42:28;21.90;99.90
6690;DHT22;3382;51.576;8.076;2022-12-07T14:44:56;21.80;99.90
6690;DHT22;3382;51.576;8.076;2022-12-07T14:47:21;21.70;99.90
6690;DHT22;3382;51.576;8.076;2022-12-07T14:49:47;21.70;99.90
6690;DHT22;3382;51.576;8.076;2022-12-07T14:52:31;21.50;99.90
6690;DHT22;3382;51.576;8.076;2022-12-07T14:54:56;21.10;99.90
6690;DHT22;3382;51.576;8.076;2022-12-07T14:57:24;20.90;99.90
6690;DHT22;3382;51.576;8.076;2022-12-07T14:59:49;20.80;99.90
6690;DHT22;3382;51.576;8.076;2022-12-07T15:02:15;21.00;99.90
6690;DHT22;3382;51.576;8.076;2022-12-07T15:04:41;21.20;99.90
6690;DHT22;3382;51.576;8.076;2022-12-07T15:07:19;21.10;99.90
6690;DHT22;3382;51.576;8.076;2022-12-07T15:09:46;20.60;99.90
6690;DHT22;3382;51.576;8.076;2022-12-07T15:12:12;20.60;99.90
6690;DHT22;3382;51.576;8.076;2022-12-07T15:14:37;20.90;99.90
6690;DHT22;3382;51.576;8.076;2022-12-07T15:17:03;21.20;99.90
6690;DHT22;3382;51.576;8.076;2022-12-07T15:19:29;21.10;99.90
6690;DHT22;3382;51.576;8.076;2022-12-07T15:21:54;21.20;99.90
6690;DHT22;3382;51.576;8.076;2022-12-07T15:24:20;21.30;99.90
6690;DHT22;3382;51.576;8.076;2022-12-07T15:26:47;21.30;99.90
6690;DHT22;3382;51.576;8.076;2022-12-07T15:29:12;21.10;99.90
6690;DHT22;3382;51.576;8.076;2022-12-07T15:31:40;20.90;99.90
6690;DHT22;3382;51.576;8.076;2022-12-07T15:34:05;20.60;99.90
6690;DHT22;3382;51.576;8.076;2022-12-07T15:36:32;19.90;99.90
6690;DHT22;3382;51.576;8.076;2022-12-07T15:38:58;18.20;99.90
6690;DHT22;3382;51.576;8.076;2022-12-07T15:41:24;17.50;99.90
6690;DHT22;3382;51.576;8.076;2022-12-07T15:43:50;16.90;99.90
6690;DHT22;3382;51.576;8.076;2022-12-07T15:46:40;16.10;99.90
6690;DHT22;3382;51.576;8.076;2022-12-07T15:49:10;15.50;99.90
6690;DHT22;3382;51.576;8.076;2022-12-07T15:51:36;14.80;99.70
6690;DHT22;3382;51.576;8.076;2022-12-07T15:54:02;14.20;99.70
6690;DHT22;3382;51.576;8.076;2022-12-07T15:56:28;14.20;99.90
6690;DHT22;3382;51.576;8.076;2022-12-07T15:58:53;14.10;99.90
6690;DHT22;3382;51.576;8.076;2022-12-07T16:01:19;13.70;99.90
6690;DHT22;3382;51.576;8.076;2022-12-07T16:03:45;13.60;99.90
6690;DHT22;3382;51.576;8.076;2022-12-07T16:06:11;13.50;99.90
6690;DHT22;3382;51.576;8.076;2022-12-07T16:08:42;13.50;99.90
6690;DHT22;3382;51.576;8.076;2022-12-07T16:11:09;13.60;99.90
6690;DHT22;3382;51.576;8.076;2022-12-07T16:13:34;13.30;99.90
6690;DHT22;3382;51.576;8.076;2022-12-07T16:16:05;12.70;99.90
6690;DHT22;3382;51.576;8.076;2022-12-07T16:18:31;12.40;99.90
6690;DHT22;3382;51.576;8.076;2022-12-07T16:20:56;12.70;99.90
6690;DHT22;3382;51.576;8.076;2022-12-07T16:23:22;12.50;99.90
6690;DHT22;3382;51.576;8.076;2022-12-07T16:25:47;11.90;99.90
6690;DHT22;3382;51.576;8.076;2022-12-07T16:28:13;11.30;99.90
6690;DHT22;3382;51.576;8.076;2022-12-07T16:30:38;10.80;99.90
6690;DHT22;3382;51.576;8.076;2022-12-07T16:33:04;10.70;99.90
6690;DHT22;3382;51.576;8.076;2022-12-07T16:35:30;10.20;99.90
6690;DHT22;3382;51.576;8.076;2022-12-07T16:37:55;9.90;99.90
6690;DHT22;3382;51.576;8.076;2022-12-07T16:40:21;9.60;99.90
6690;DHT22;3382;51.576;8.076;2022-12-07T16:42:46;9.40;99.90
6690;DHT22;3382;51.576;8.076;2022-12-07T16:45:13;10.20;99.90
6690;DHT22;3382;51.576;8.076;2022-12-07T16:47:39;11.80;99.90
6690;DHT22;3382;51.576;8.076;2022-12-07T16:50:05;12.50;99.90
6690;DHT22;3382;51.576;8.076;2022-12-07T16:52:31;11.10;99.90
6690;DHT22;3382;51.576;8.076;2022-12-07T16:54:56;10.00;99.90
6690;DHT22;3382;51.576;8.076;2022-12-07T16:57:22;9.20;99.90
6690;DHT22;3382;51.576;8.076;2022-12-07T16:59:47;8.70;99.90
6690;DHT22;3382;51.576;8.076;2022-12-07T17:02:13;8.40;99.90
6690;DHT22;3382;51.576;8.076;2022-12-07T17:04:39;8.00;99.90
6690;DHT22;3382;51.576;8.076;2022-12-07T17:07:08;7.80;99.90
6690;DHT22;3382;51.576;8.076;2022-12-07T17:09:34;7.60;99.90
6690;DHT22;3382;51.576;8.076;2022-12-07T17:12:00;7.40;99.90
6690;DHT22;3382;51.576;8.076;2022-12-07T17:14:26;7.30;99.90
6690;DHT22;3382;51.576;8.076;2022-12-07T17:17:10;7.30;99.90
6690;DHT22;3382;51.576;8.076;2022-12-07T17:19:36;7.30;99.90
6690;DHT22;3382;51.576;8.076;2022-12-07T17:22:02;7.10;99.90
6690;DHT22;3382;51.576;8.076;2022-12-07T17:24:27;7.00;99.90
6690;DHT22;3382;51.576;8.076;2022-12-07T17:26:53;6.90;99.90
6690;DHT22;3382;51.576;8.076;2022-12-07T17:29:19;6.80;99.90
6690;DHT22;3382;51.576;8.076;2022-12-07T17:31:46;7.40;99.90
6690;DHT22;3382;51.576;8.076;2022-12-07T17:34:13;6.70;99.90
6690;DHT22;3382;51.576;8.076;2022-12-07T17:36:40;6.70;99.90
6690;DHT22;3382;51.576;8.076;2022-12-07T17:39:09;6.70;99.90
6690;DHT22;3382;51.576;8.076;2022-12-07T17:41:36;7.10;99.90
6690;DHT22;3382;51.576;8.076;2022-12-07T17:44:20;6.60;99.90
6690;DHT22;3382;51.576;8.076;2022-12-07T17:46:47;7.00;99.90
6690;DHT22;3382;51.576;8.076;2022-12-07T17:49:13;6.60;99.90
6690;DHT22;3382;51.576;8.076;2022-12-07T17:51:39;6.70;99.90
6690;DHT22;3382;51.576;8.076;2022-12-07T17:54:23;6.70;99.90
6690;DHT22;3382;51.576;8.076;2022-12-07T17:56:49;6.70;99.90
6690;DHT22;3382;51.576;8.076;2022-12-07T17:59:15;6.70;99.90
6690;DHT22;3382;51.576;8.076;2022-12-07T18:01:41;6.70;99.90
6690;DHT22;3382;51.576;8.076;2022-12-07T18:04:07;6.70;99.90
6690;DHT22;3382;51.576;8.076;2022-12-07T18:06:33;7.30;99.90
6690;DHT22;3382;51.576;8.076;2022-12-07T18:08:59;6.70;99.90
6690;DHT22;3382;51.576;8.076;2022-12-07T18:11:25;6.70;99.90
6690;DHT22;3382;51.576;8.076;2022-12-07T18:13:51;6.70;99.90
6690;DHT22;3382;51.576;8.076;2022-12-07T18:16:20;6.70;99.90
6690;DHT22;3382;51.576;8.076;2022-12-07T18:18:47;6.70;99.90
6690;DHT22;3382;51.576;8.076;2022-12-07T18:21:16;6.60;99.90
6690;DHT22;3382;51.576;8.076;2022-12-07T18:23:43;6.70;99.90
6690;DHT22;3382;51.576;8.076;2022-12-07T18:26:09;6.70;99.90
6690;DHT22;3382;51.576;8.076;2022-12-07T18:28:35;6.70;99.90
6690;DHT22;3382;51.576;8.076;2022-12-07T18:31:01;6.60;99.90
6690;DHT22;3382;51.576;8.076;2022-12-07T18:33:27;6.60;99.90
6690;DHT22;3382;51.576;8.076;2022-12-07T18:35:53;6.60;99.90
6690;DHT22;3382;51.576;8.076;2022-12-07T18:38:18;6.70;99.90
6690;DHT22;3382;51.576;8.076;2022-12-07T18:40:44;6.50;99.90
6690;DHT22;3382;51.576;8.076;2022-12-07T18:43:11;6.50;99.90
6690;DHT22;3382;51.576;8.076;2022-12-07T18:45:39;6.60;99.90